PWSweather.com
Personal Weather Stations
Station Observations
LABLIDAR
PotenzaIT

PotenzaIT

Lat: 40.6467, Lon: 15.809

Elevation: 2395

Station Type: Oregon WMRS200

High Low Average
Temperature 57.7°F14.3°F 47.8°F8.8°F 50.7°F10.4°F
Dew Point 37.9°F3.3°F 29.8°F-1.2°F 31.3°F-0.4°F
Winds 3.9 mph NNE6.3 mph NNE Calm Calm 1.4 mph 2.3 mph
Wind Gusts 7.4 mph11.9 mph -- 3.6 mph5.8 mph
Humidity 51% 41% 47%
Pressure 27.52 in931.90 in 27.40 in927.90 in -
Precipitation 0.00 in0.00 in - -
Hour Temp Dew Point Humidity Winds Wind Gusts Pressure Precip Precip Rate Daily Precip Total
12:22 AM 54.8°F12.7°C 31.1°F-0.5°C 41% 3.4 mph NE5.5 kmh NE 4.9 mph7.9 kmh -338605.1 mb 0.00 in0.0 mm 0.00 in/hr0.0 mm/hr 0.00 in0.0 mm
12:27 AM 54.6°F12.6°C 31.4°F-0.3°C 41% 3.3 mph NNE5.3 kmh NNE 5.6 mph9.0 kmh 27.40 in927.9 mb 0.00 in0.0 mm 0.00 in/hr0.0 mm/hr 0.00 in0.0 mm
12:39 AM 54.2°F12.3°C 31.1°F-0.5°C 41% 3.9 mph NNE6.3 kmh NNE 4.7 mph7.6 kmh 27.40 in927.9 mb 0.00 in0.0 mm 0.00 in/hr0.0 mm/hr 0.00 in0.0 mm
12:45 AM 54.1°F12.3°C 31.6°F-0.2°C 42% 3.2 mph N5.1 kmh N 6.3 mph10.1 kmh 27.43 in928.9 mb 0.00 in0.0 mm 0.00 in/hr0.0 mm/hr 0.00 in0.0 mm
12:49 AM 54.0°F12.2°C 31.4°F-0.3°C 42% 0.5 mph W0.8 kmh W 6.3 mph10.1 kmh 27.43 in928.9 mb 0.00 in0.0 mm 0.00 in/hr0.0 mm/hr 0.00 in0.0 mm
01:08 AM 53.6°F12.0°C 31.6°F-0.2°C 43% 0.5 mph NE0.8 kmh NE 0.9 mph1.4 kmh 27.46 in929.9 mb 0.00 in0.0 mm 0.00 in/hr0.0 mm/hr 0.00 in0.0 mm
01:13 AM 53.4°F11.9°C 31.5°F-0.3°C 43% 1.3 mph ENE2.1 kmh ENE 2.2 mph3.5 kmh 27.46 in929.9 mb 0.00 in0.0 mm 0.00 in/hr0.0 mm/hr 0.00 in0.0 mm
01:18 AM 53.3°F11.8°C 31.4°F-0.3°C 43% Calm Calm 2.2 mph3.5 kmh 27.46 in929.9 mb 0.00 in0.0 mm 0.00 in/hr0.0 mm/hr 0.00 in0.0 mm
01:23 AM 53.1°F11.7°C 31.2°F-0.4°C 43% 0.4 mph SSE0.6 kmh SSE 2.0 mph3.2 kmh 27.46 in929.9 mb 0.00 in0.0 mm 0.00 in/hr0.0 mm/hr 0.00 in0.0 mm
01:28 AM 53.0°F11.7°C 31.2°F-0.4°C 43% 1.1 mph WSW1.8 kmh WSW 2.5 mph4.0 kmh 27.46 in929.9 mb 0.00 in0.0 mm 0.00 in/hr0.0 mm/hr 0.00 in0.0 mm
01:33 AM 52.8°F11.6°C 31.0°F-0.6°C 43% 1.1 mph NNW1.8 kmh NNW 2.5 mph4.0 kmh 27.43 in928.9 mb 0.00 in0.0 mm 0.00 in/hr0.0 mm/hr 0.00 in0.0 mm
01:38 AM 52.7°F11.5°C 30.8°F-0.7°C 43% 1.8 mph NW2.9 kmh NW 3.4 mph5.5 kmh 27.43 in928.9 mb 0.00 in0.0 mm 0.00 in/hr0.0 mm/hr 0.00 in0.0 mm
01:43 AM 52.5°F11.4°C 30.7°F-0.7°C 43% 1.3 mph N2.1 kmh N 3.4 mph5.5 kmh 27.43 in928.9 mb 0.00 in0.0 mm 0.00 in/hr0.0 mm/hr 0.00 in0.0 mm
01:48 AM 52.3°F11.3°C 31.0°F-0.6°C 44% 0.8 mph SE1.3 kmh SE 2.2 mph3.5 kmh 27.43 in928.9 mb 0.00 in0.0 mm 0.00 in/hr0.0 mm/hr 0.00 in0.0 mm
01:53 AM 52.2°F11.2°C 30.9°F-0.6°C 44% 1.6 mph ENE2.6 kmh ENE 3.1 mph5.0 kmh 27.43 in928.9 mb 0.00 in0.0 mm 0.00 in/hr0.0 mm/hr 0.00 in0.0 mm
01:58 AM 52.1°F11.2°C 30.9°F-0.6°C 44% 1.8 mph WNW2.9 kmh WNW 3.1 mph5.0 kmh 27.43 in928.9 mb 0.00 in0.0 mm 0.00 in/hr0.0 mm/hr 0.00 in0.0 mm
02:03 AM 52.0°F11.1°C 30.8°F-0.7°C 44% 0.8 mph SE1.3 kmh SE 2.9 mph4.7 kmh 27.43 in928.9 mb 0.00 in0.0 mm 0.00 in/hr0.0 mm/hr 0.00 in0.0 mm
02:08 AM 51.9°F11.1°C 31.0°F-0.6°C 45% Calm Calm 4.3 mph6.9 kmh 27.43 in928.9 mb 0.00 in0.0 mm 0.00 in/hr0.0 mm/hr 0.00 in0.0 mm
02:13 AM 51.8°F11.0°C 31.2°F-0.4°C 45% 0.1 mph ESE0.2 kmh ESE 4.3 mph6.9 kmh 27.43 in928.9 mb 0.00 in0.0 mm 0.00 in/hr0.0 mm/hr 0.00 in0.0 mm
02:18 AM 51.7°F10.9°C 31.1°F-0.5°C 45% 1.3 mph ESE2.1 kmh ESE 4.3 mph6.9 kmh 27.43 in928.9 mb 0.00 in0.0 mm 0.00 in/hr0.0 mm/hr 0.00 in0.0 mm
02:23 AM 51.6°F10.9°C 31.0°F-0.6°C 45% 0.7 mph N1.1 kmh N 2.9 mph4.7 kmh 27.43 in928.9 mb 0.00 in0.0 mm 0.00 in/hr0.0 mm/hr 0.00 in0.0 mm
02:28 AM 51.6°F10.9°C 31.0°F-0.6°C 45% 1.5 mph ESE2.4 kmh ESE 4.0 mph6.4 kmh 27.43 in928.9 mb 0.00 in0.0 mm 0.00 in/hr0.0 mm/hr 0.00 in0.0 mm
02:33 AM 51.6°F10.9°C 31.0°F-0.6°C 45% 1.1 mph ENE1.8 kmh ENE 4.0 mph6.4 kmh 27.43 in928.9 mb 0.00 in0.0 mm 0.00 in/hr0.0 mm/hr 0.00 in0.0 mm
02:38 AM 51.5°F10.8°C 31.3°F-0.4°C 46% 0.3 mph E0.5 kmh E 4.7 mph7.6 kmh 27.43 in928.9 mb 0.00 in0.0 mm 0.00 in/hr0.0 mm/hr 0.00 in0.0 mm
02:43 AM 51.4°F10.8°C 31.4°F-0.3°C 46% 0.6 mph E1.0 kmh E 4.7 mph7.6 kmh 27.43 in928.9 mb 0.00 in0.0 mm 0.00 in/hr0.0 mm/hr 0.00 in0.0 mm
02:48 AM 51.4°F10.8°C 31.4°F-0.3°C 46% 2.8 mph ENE4.5 kmh ENE 4.3 mph6.9 kmh 27.43 in928.9 mb 0.00 in0.0 mm 0.00 in/hr0.0 mm/hr 0.00 in0.0 mm
02:53 AM 51.3°F10.7°C 31.3°F-0.4°C 46% 3.7 mph NE6.0 kmh NE 6.3 mph10.1 kmh 27.43 in928.9 mb 0.00 in0.0 mm 0.00 in/hr0.0 mm/hr 0.00 in0.0 mm
02:58 AM 51.3°F10.7°C 31.2°F-0.4°C 46% 1.7 mph S2.7 kmh S 6.3 mph10.1 kmh 27.43 in928.9 mb 0.00 in0.0 mm 0.00 in/hr0.0 mm/hr 0.00 in0.0 mm
03:03 AM 51.3°F10.7°C 31.2°F-0.4°C 46% 1.3 mph E2.1 kmh E 3.8 mph6.1 kmh 27.43 in928.9 mb 0.00 in0.0 mm 0.00 in/hr0.0 mm/hr 0.00 in0.0 mm
03:08 AM 51.3°F10.7°C 31.2°F-0.4°C 46% 0.2 mph E0.3 kmh E 3.8 mph6.1 kmh 27.43 in928.9 mb 0.00 in0.0 mm 0.00 in/hr0.0 mm/hr 0.00 in0.0 mm
03:13 AM 51.2°F10.7°C 31.2°F-0.4°C 46% 0.4 mph SSE0.6 kmh SSE 4.3 mph6.9 kmh 27.43 in928.9 mb 0.00 in0.0 mm 0.00 in/hr0.0 mm/hr 0.00 in0.0 mm
03:18 AM 51.1°F10.6°C 31.0°F-0.6°C 46% 1.2 mph ENE1.9 kmh ENE 4.3 mph6.9 kmh 27.43 in928.9 mb 0.00 in0.0 mm 0.00 in/hr0.0 mm/hr 0.00 in0.0 mm
03:23 AM 51.1°F10.6°C 31.0°F-0.6°C 46% 1.1 mph S1.8 kmh S 4.3 mph6.9 kmh 27.43 in928.9 mb 0.00 in0.0 mm 0.00 in/hr0.0 mm/hr 0.00 in0.0 mm
03:28 AM 51.1°F10.6°C 31.0°F-0.6°C 46% Calm Calm 4.3 mph6.9 kmh 27.43 in928.9 mb 0.00 in0.0 mm 0.00 in/hr0.0 mm/hr 0.00 in0.0 mm
03:33 AM 51.0°F10.6°C 31.0°F-0.6°C 46% 1.3 mph S2.1 kmh S 2.2 mph3.5 kmh 27.43 in928.9 mb 0.00 in0.0 mm 0.00 in/hr0.0 mm/hr 0.00 in0.0 mm
03:38 AM 50.9°F10.5°C 31.2°F-0.4°C 47% 3.2 mph N5.1 kmh N 4.3 mph6.9 kmh 27.43 in928.9 mb 0.00 in0.0 mm 0.00 in/hr0.0 mm/hr 0.00 in0.0 mm
03:43 AM 50.9°F10.5°C 31.4°F-0.3°C 47% 1.7 mph NE2.7 kmh NE 4.3 mph6.9 kmh 27.43 in928.9 mb 0.00 in0.0 mm 0.00 in/hr0.0 mm/hr 0.00 in0.0 mm
03:48 AM 50.9°F10.5°C 31.4°F-0.3°C 47% 1.0 mph N1.6 kmh N 2.7 mph4.3 kmh 27.43 in928.9 mb 0.00 in0.0 mm 0.00 in/hr0.0 mm/hr 0.00 in0.0 mm
03:53 AM 50.7°F10.4°C 31.2°F-0.4°C 47% 0.4 mph N0.6 kmh N 2.9 mph4.7 kmh 27.43 in928.9 mb 0.00 in0.0 mm 0.00 in/hr0.0 mm/hr 0.00 in0.0 mm
03:58 AM 50.7°F10.4°C 31.2°F-0.4°C 47% 1.2 mph N1.9 kmh N 2.9 mph4.7 kmh 27.43 in928.9 mb 0.00 in0.0 mm 0.00 in/hr0.0 mm/hr 0.00 in0.0 mm
04:03 AM 50.6°F10.3°C 31.1°F-0.5°C 47% 1.5 mph N2.4 kmh N 3.4 mph5.5 kmh 27.43 in928.9 mb 0.00 in0.0 mm 0.00 in/hr0.0 mm/hr 0.00 in0.0 mm
04:08 AM 50.5°F10.3°C 31.1°F-0.5°C 47% 2.2 mph N3.5 kmh N 3.6 mph5.8 kmh 27.43 in928.9 mb 0.00 in0.0 mm 0.00 in/hr0.0 mm/hr 0.00 in0.0 mm
04:13 AM 50.4°F10.2°C 31.0°F-0.6°C 47% Calm Calm 3.6 mph5.8 kmh 27.43 in928.9 mb 0.00 in0.0 mm 0.00 in/hr0.0 mm/hr 0.00 in0.0 mm
04:18 AM 50.4°F10.2°C 30.9°F-0.6°C 47% 1.1 mph NW1.8 kmh NW 2.5 mph4.0 kmh 27.43 in928.9 mb 0.00 in0.0 mm 0.00 in/hr0.0 mm/hr 0.00 in0.0 mm
04:23 AM 50.3°F10.2°C 30.9°F-0.6°C 47% 0.6 mph NNW1.0 kmh NNW 2.5 mph4.0 kmh 27.43 in928.9 mb 0.00 in0.0 mm 0.00 in/hr0.0 mm/hr 0.00 in0.0 mm
04:28 AM 50.2°F10.1°C 30.7°F-0.7°C 47% Calm Calm 1.6 mph2.6 kmh 27.43 in928.9 mb 0.00 in0.0 mm 0.00 in/hr0.0 mm/hr 0.00 in0.0 mm
04:33 AM 50.2°F10.1°C 30.7°F-0.7°C 47% Calm Calm 1.6 mph2.6 kmh 27.43 in928.9 mb 0.00 in0.0 mm 0.00 in/hr0.0 mm/hr 0.00 in0.0 mm
04:38 AM 50.2°F10.1°C 30.7°F-0.7°C 47% Calm Calm -- 27.43 in928.9 mb 0.00 in0.0 mm 0.00 in/hr0.0 mm/hr 0.00 in0.0 mm
04:43 AM 50.0°F10.0°C 31.0°F-0.6°C 48% Calm Calm -- 27.43 in928.9 mb 0.00 in0.0 mm 0.00 in/hr0.0 mm/hr 0.00 in0.0 mm
04:48 AM 50.0°F10.0°C 31.1°F-0.5°C 48% Calm Calm -- 27.46 in929.9 mb 0.00 in0.0 mm 0.00 in/hr0.0 mm/hr 0.00 in0.0 mm
04:53 AM 50.0°F10.0°C 31.1°F-0.5°C 48% Calm Calm -- 27.46 in929.9 mb 0.00 in0.0 mm 0.00 in/hr0.0 mm/hr 0.00 in0.0 mm
04:58 AM 49.9°F9.9°C 31.0°F-0.6°C 48% Calm Calm -- 27.46 in929.9 mb 0.00 in0.0 mm 0.00 in/hr0.0 mm/hr 0.00 in0.0 mm
05:03 AM 49.8°F9.9°C 30.9°F-0.6°C 48% Calm Calm -- 27.46 in929.9 mb 0.00 in0.0 mm 0.00 in/hr0.0 mm/hr 0.00 in0.0 mm
05:08 AM 49.7°F9.8°C 30.8°F-0.7°C 48% Calm Calm -- 27.46 in929.9 mb 0.00 in0.0 mm 0.00 in/hr0.0 mm/hr 0.00 in0.0 mm
05:13 AM 49.6°F9.8°C 30.7°F-0.7°C 48% 1.2 mph N1.9 kmh N 2.7 mph4.3 kmh 27.46 in929.9 mb 0.00 in0.0 mm 0.00 in/hr0.0 mm/hr 0.00 in0.0 mm
05:18 AM 49.5°F9.7°C 30.6°F-0.8°C 48% 1.1 mph E1.8 kmh E 2.7 mph4.3 kmh 27.46 in929.9 mb 0.00 in0.0 mm 0.00 in/hr0.0 mm/hr 0.00 in0.0 mm
05:23 AM 49.4°F9.7°C 30.5°F-0.8°C 48% 1.6 mph SE2.6 kmh SE 2.5 mph4.0 kmh 27.46 in929.9 mb 0.00 in0.0 mm 0.00 in/hr0.0 mm/hr 0.00 in0.0 mm
05:28 AM 49.3°F9.6°C 30.4°F-0.9°C 48% 1.1 mph S1.8 kmh S 2.5 mph4.0 kmh 27.46 in929.9 mb 0.00 in0.0 mm 0.00 in/hr0.0 mm/hr 0.00 in0.0 mm
05:33 AM 49.1°F9.5°C 30.3°F-0.9°C 48% Calm Calm 2.5 mph4.0 kmh 27.46 in929.9 mb 0.00 in0.0 mm 0.00 in/hr0.0 mm/hr 0.00 in0.0 mm
05:38 AM 49.1°F9.5°C 30.3°F-0.9°C 48% 0.8 mph SSE1.3 kmh SSE 2.9 mph4.7 kmh 27.46 in929.9 mb 0.00 in0.0 mm 0.00 in/hr0.0 mm/hr 0.00 in0.0 mm
05:43 AM 49.0°F9.4°C 30.1°F-1.1°C 48% Calm Calm 2.9 mph4.7 kmh 27.46 in929.9 mb 0.00 in0.0 mm 0.00 in/hr0.0 mm/hr 0.00 in0.0 mm
05:48 AM 48.9°F9.4°C 30.1°F-1.1°C 48% Calm Calm -- 27.46 in929.9 mb 0.00 in0.0 mm 0.00 in/hr0.0 mm/hr 0.00 in0.0 mm
05:53 AM 48.7°F9.3°C 29.9°F-1.2°C 48% Calm Calm -- 27.46 in929.9 mb 0.00 in0.0 mm 0.00 in/hr0.0 mm/hr 0.00 in0.0 mm
05:58 AM 48.7°F9.3°C 29.9°F-1.2°C 48% Calm Calm -- 27.46 in929.9 mb 0.00 in0.0 mm 0.00 in/hr0.0 mm/hr 0.00 in0.0 mm
06:03 AM 48.6°F9.2°C 29.8°F-1.2°C 48% Calm Calm 2.0 mph3.2 kmh 27.46 in929.9 mb 0.00 in0.0 mm 0.00 in/hr0.0 mm/hr 0.00 in0.0 mm
06:08 AM 48.5°F9.2°C 29.8°F-1.2°C 48% 1.5 mph NE2.4 kmh NE 2.7 mph4.3 kmh 27.46 in929.9 mb 0.00 in0.0 mm 0.00 in/hr0.0 mm/hr 0.00 in0.0 mm
06:13 AM 48.4°F9.1°C 29.9°F-1.2°C 49% Calm Calm 2.7 mph4.3 kmh 27.46 in929.9 mb 0.00 in0.0 mm 0.00 in/hr0.0 mm/hr 0.00 in0.0 mm
06:18 AM 48.4°F9.1°C 30.1°F-1.1°C 49% 0.9 mph NE1.4 kmh NE 2.5 mph4.0 kmh 27.46 in929.9 mb 0.00 in0.0 mm 0.00 in/hr0.0 mm/hr 0.00 in0.0 mm
06:23 AM 48.2°F9.0°C 30.0°F-1.1°C 49% 1.7 mph N2.7 kmh N 4.3 mph6.9 kmh 27.46 in929.9 mb 0.00 in0.0 mm 0.00 in/hr0.0 mm/hr 0.00 in0.0 mm
06:28 AM 48.2°F9.0°C 30.0°F-1.1°C 49% 1.9 mph NNE3.1 kmh NNE 4.3 mph6.9 kmh 27.46 in929.9 mb 0.00 in0.0 mm 0.00 in/hr0.0 mm/hr 0.00 in0.0 mm
06:33 AM 48.1°F8.9°C 30.0°F-1.1°C 50% 1.9 mph NE3.1 kmh NE 4.5 mph7.2 kmh 27.49 in930.9 mb 0.00 in0.0 mm 0.00 in/hr0.0 mm/hr 0.00 in0.0 mm
06:38 AM 48.0°F8.9°C 30.3°F-0.9°C 50% 1.8 mph NNE2.9 kmh NNE 4.5 mph7.2 kmh 27.49 in930.9 mb 0.00 in0.0 mm 0.00 in/hr0.0 mm/hr 0.00 in0.0 mm
06:43 AM 48.0°F8.9°C 30.3°F-0.9°C 50% 1.5 mph E2.4 kmh E 3.8 mph6.1 kmh 27.49 in930.9 mb 0.00 in0.0 mm 0.00 in/hr0.0 mm/hr 0.00 in0.0 mm
06:50 AM 48.0°F8.9°C 30.2°F-1.0°C 50% 1.5 mph ENE2.4 kmh ENE 3.8 mph6.1 kmh 27.49 in930.9 mb 0.00 in0.0 mm 0.00 in/hr0.0 mm/hr 0.00 in0.0 mm
06:55 AM 47.8°F8.8°C 30.1°F-1.1°C 50% 1.1 mph NE1.8 kmh NE 3.4 mph5.5 kmh 27.49 in930.9 mb 0.00 in0.0 mm 0.00 in/hr0.0 mm/hr 0.00 in0.0 mm
07:00 AM 47.8°F8.8°C 30.1°F-1.1°C 50% 1.6 mph NNE2.6 kmh NNE 3.4 mph5.5 kmh 27.49 in930.9 mb 0.00 in0.0 mm 0.00 in/hr0.0 mm/hr 0.00 in0.0 mm
07:05 AM 47.8°F8.8°C 30.1°F-1.1°C 50% 0.9 mph N1.4 kmh N 3.4 mph5.5 kmh 27.49 in930.9 mb 0.00 in0.0 mm 0.00 in/hr0.0 mm/hr 0.00 in0.0 mm
07:10 AM 47.8°F8.8°C 30.1°F-1.1°C 50% 0.8 mph NW1.3 kmh NW 2.5 mph4.0 kmh 27.49 in930.9 mb 0.00 in0.0 mm 0.00 in/hr0.0 mm/hr 0.00 in0.0 mm
07:15 AM 47.8°F8.8°C 30.1°F-1.1°C 50% 0.9 mph SE1.4 kmh SE 2.5 mph4.0 kmh 27.52 in931.9 mb 0.00 in0.0 mm 0.00 in/hr0.0 mm/hr 0.00 in0.0 mm
07:20 AM 47.8°F8.8°C 30.1°F-1.1°C 50% 0.6 mph SE1.0 kmh SE 2.5 mph4.0 kmh 27.52 in931.9 mb 0.00 in0.0 mm 0.00 in/hr0.0 mm/hr 0.00 in0.0 mm
07:25 AM 47.8°F8.8°C 30.1°F-1.1°C 50% 2.1 mph NW3.4 kmh NW 4.3 mph6.9 kmh 27.52 in931.9 mb 0.00 in0.0 mm 0.00 in/hr0.0 mm/hr 0.00 in0.0 mm
07:30 AM 47.8°F8.8°C 30.6°F-0.8°C 51% 1.6 mph E2.6 kmh E 4.3 mph6.9 kmh 27.46 in929.9 mb 0.00 in0.0 mm 0.00 in/hr0.0 mm/hr 0.00 in0.0 mm
07:35 AM 47.8°F8.8°C 30.6°F-0.8°C 51% 1.7 mph E2.7 kmh E 3.4 mph5.5 kmh 27.46 in929.9 mb 0.00 in0.0 mm 0.00 in/hr0.0 mm/hr 0.00 in0.0 mm
07:40 AM 47.8°F8.8°C 30.6°F-0.8°C 51% 2.3 mph E3.7 kmh E 5.6 mph9.0 kmh 27.46 in929.9 mb 0.00 in0.0 mm 0.00 in/hr0.0 mm/hr 0.00 in0.0 mm
07:45 AM 47.9°F8.8°C 30.7°F-0.7°C 51% 1.3 mph NE2.1 kmh NE 5.6 mph9.0 kmh 27.46 in929.9 mb 0.00 in0.0 mm 0.00 in/hr0.0 mm/hr 0.00 in0.0 mm
07:50 AM 48.0°F8.9°C 30.8°F-0.7°C 51% 1.2 mph NNE1.9 kmh NNE 2.5 mph4.0 kmh 27.46 in929.9 mb 0.00 in0.0 mm 0.00 in/hr0.0 mm/hr 0.00 in0.0 mm
07:55 AM 48.0°F8.9°C 30.8°F-0.7°C 51% 2.1 mph N3.4 kmh N 3.8 mph6.1 kmh 27.46 in929.9 mb 0.00 in0.0 mm 0.00 in/hr0.0 mm/hr 0.00 in0.0 mm
08:00 AM 48.0°F8.9°C 30.8°F-0.7°C 51% 1.6 mph NE2.6 kmh NE 3.8 mph6.1 kmh 27.49 in930.9 mb 0.00 in0.0 mm 0.00 in/hr0.0 mm/hr 0.00 in0.0 mm
08:05 AM 48.2°F9.0°C 30.9°F-0.6°C 51% 1.7 mph NE2.7 kmh NE 3.8 mph6.1 kmh 27.49 in930.9 mb 0.00 in0.0 mm 0.00 in/hr0.0 mm/hr 0.00 in0.0 mm
08:10 AM 48.2°F9.0°C 30.9°F-0.6°C 51% 1.3 mph N2.1 kmh N 2.7 mph4.3 kmh 27.49 in930.9 mb 0.00 in0.0 mm 0.00 in/hr0.0 mm/hr 0.00 in0.0 mm
08:15 AM 48.4°F9.1°C 30.6°F-0.8°C 50% 1.6 mph E2.6 kmh E 3.8 mph6.1 kmh 27.49 in930.9 mb 0.00 in0.0 mm 0.00 in/hr0.0 mm/hr 0.00 in0.0 mm
08:20 AM 48.6°F9.2°C 30.8°F-0.7°C 50% 2.3 mph ESE3.7 kmh ESE 3.8 mph6.1 kmh 27.49 in930.9 mb 0.00 in0.0 mm 0.00 in/hr0.0 mm/hr 0.00 in0.0 mm
08:25 AM 48.8°F9.3°C 31.0°F-0.6°C 50% 2.0 mph ENE3.2 kmh ENE 3.6 mph5.8 kmh 27.49 in930.9 mb 0.00 in0.0 mm 0.00 in/hr0.0 mm/hr 0.00 in0.0 mm
08:30 AM 49.1°F9.5°C 31.3°F-0.4°C 50% 1.7 mph ENE2.7 kmh ENE 4.0 mph6.4 kmh 27.49 in930.9 mb 0.00 in0.0 mm 0.00 in/hr0.0 mm/hr 0.00 in0.0 mm
08:35 AM 49.4°F9.7°C 31.4°F-0.3°C 49% 1.7 mph E2.7 kmh E 4.0 mph6.4 kmh 27.49 in930.9 mb 0.00 in0.0 mm 0.00 in/hr0.0 mm/hr 0.00 in0.0 mm
08:40 AM 49.8°F9.9°C 31.4°F-0.3°C 49% 1.5 mph ENE2.4 kmh ENE 4.7 mph7.6 kmh 27.49 in930.9 mb 0.00 in0.0 mm 0.00 in/hr0.0 mm/hr 0.00 in0.0 mm
08:45 AM 50.2°F10.1°C 31.7°F-0.2°C 49% 2.5 mph ENE4.0 kmh ENE 6.3 mph10.1 kmh 27.49 in930.9 mb 0.00 in0.0 mm 0.00 in/hr0.0 mm/hr 0.00 in0.0 mm
08:50 AM 50.6°F10.3°C 31.6°F-0.2°C 48% 3.0 mph ENE4.8 kmh ENE 6.5 mph10.5 kmh 27.49 in930.9 mb 0.00 in0.0 mm 0.00 in/hr0.0 mm/hr 0.00 in0.0 mm
08:55 AM 51.0°F10.6°C 32.0°F0.0°C 48% 3.1 mph NNE5.0 kmh NNE 6.5 mph10.5 kmh 27.49 in930.9 mb 0.00 in0.0 mm 0.00 in/hr0.0 mm/hr 0.00 in0.0 mm
09:00 AM 51.4°F10.8°C 32.4°F0.2°C 48% 3.0 mph NNE4.8 kmh NNE 6.3 mph10.1 kmh 27.49 in930.9 mb 0.00 in0.0 mm 0.00 in/hr0.0 mm/hr 0.00 in0.0 mm
09:05 AM 51.7°F10.9°C 32.2°F0.1°C 47% 3.2 mph NNE5.1 kmh NNE 5.8 mph9.3 kmh 27.49 in930.9 mb 0.00 in0.0 mm 0.00 in/hr0.0 mm/hr 0.00 in0.0 mm
09:10 AM 51.9°F11.1°C 32.3°F0.2°C 47% 3.2 mph N5.1 kmh N 7.4 mph11.9 kmh 27.49 in930.9 mb 0.00 in0.0 mm 0.00 in/hr0.0 mm/hr 0.00 in0.0 mm
09:15 AM 52.1°F11.2°C 32.7°F0.4°C 48% 3.1 mph NE5.0 kmh NE 7.4 mph11.9 kmh 27.49 in930.9 mb 0.00 in0.0 mm 0.00 in/hr0.0 mm/hr 0.00 in0.0 mm
09:20 AM 52.6°F11.4°C 33.5°F0.8°C 48% 2.3 mph N3.7 kmh N 4.7 mph7.6 kmh 27.49 in930.9 mb 0.00 in0.0 mm 0.00 in/hr0.0 mm/hr 0.00 in0.0 mm
09:25 AM 53.6°F12.0°C 34.1°F1.2°C 47% 2.5 mph NE4.0 kmh NE 6.0 mph9.7 kmh 27.49 in930.9 mb 0.00 in0.0 mm 0.00 in/hr0.0 mm/hr 0.00 in0.0 mm
09:30 AM 54.8°F12.7°C 34.5°F1.4°C 46% 3.5 mph NE5.6 kmh NE 6.0 mph9.7 kmh 27.49 in930.9 mb 0.00 in0.0 mm 0.00 in/hr0.0 mm/hr 0.00 in0.0 mm
09:35 AM 55.9°F13.3°C 34.9°F1.6°C 45% 2.8 mph NNE4.5 kmh NNE 6.0 mph9.7 kmh 27.49 in930.9 mb 0.00 in0.0 mm 0.00 in/hr0.0 mm/hr 0.00 in0.0 mm
09:40 AM 56.8°F13.8°C 35.8°F2.1°C 46% 3.6 mph NNE5.8 kmh NNE 5.8 mph9.3 kmh 27.49 in930.9 mb 0.00 in0.0 mm 0.00 in/hr0.0 mm/hr 0.00 in0.0 mm
09:45 AM 57.6°F14.2°C 36.9°F2.7°C 46% 3.7 mph NNW6.0 kmh NNW 5.4 mph8.7 kmh 27.49 in930.9 mb 0.00 in0.0 mm 0.00 in/hr0.0 mm/hr 0.00 in0.0 mm
09:50 AM 57.7°F14.3°C 37.3°F2.9°C 47% 2.6 mph NE4.2 kmh NE 4.9 mph7.9 kmh 27.49 in930.9 mb 0.00 in0.0 mm 0.00 in/hr0.0 mm/hr 0.00 in0.0 mm
09:55 AM 57.5°F14.2°C 37.6°F3.1°C 48% 2.9 mph N4.7 kmh N 5.8 mph9.3 kmh 27.49 in930.9 mb 0.00 in0.0 mm 0.00 in/hr0.0 mm/hr 0.00 in0.0 mm
10:00 AM 57.4°F14.1°C 37.9°F3.3°C 49% 3.1 mph N5.0 kmh N 5.8 mph9.3 kmh 27.52 in931.9 mb 0.00 in0.0 mm 0.00 in/hr0.0 mm/hr 0.00 in0.0 mm